Pejepscot, Maine
Current Conditions -  °F | °C
As of 2:53 PM on Saturday 25 Oct 2014 (Local Time) from KIWI Reporting Station
Clear Clear  
Wind Chill: 63°   Ceiling: Unl
Heat Index: 63°   Visibility: 10mi
Dew Point: 39°   Wind: 6mph
Humidity: 41%   Direction: 230°SW
Pressure: 29.58"   Gusts: NA
Location:  43.9677°N, 69.9739°W
Report Text: KIWI 251853Z AUTO 23005KT 10SM CLR 17/04 A2958 RMK AO2 SLP017 T01720039
Loading
Personal Weather Stations






























Interactive Weather Map
Tropical Storm Tracking
New forecast layout! Learn more

10-Day Weather Forecast

Advertisements
Track Severe Weather on mobile